Terminal Aerodrome Forecast
Issued by NWS Cleveland, OH

Home | Current Version | Previous Version | Graphics & Text | Print | Product List | Glossary On
Versions: 1 2 3 4 5 6 7 8 9 10 11 12 13 14 15 16 17 18
000
FTUS41 KCLE 300500 CCA
TAFMFD
TAF COR
KMFD 300554Z 3006/3106 30012G20KT 6SM BR SCT008 OVC015
      TEMPO 3007/3010 3SM -SHSN OVC008
     FM301300 31012G20KT P6SM SCT008 OVC015
     FM302200 31007KT P6SM SCT025 BKN250
     FM310000 VRB03KT P6SM BKN250=

USA.gov is the U.S. government's official web portal to all federal, state and local government web resources and services.